sensor_id;sensor_type;location;lat;lon;timestamp;P1;durP1;ratioP1;P2;durP2;ratioP2
4074;SDS011;2052;53.522;9.806;2024-02-26T00:00:16;16.10;;;9.20;;
4074;SDS011;2052;53.522;9.806;2024-02-26T00:02:45;16.00;;;7.90;;
4074;SDS011;2052;53.522;9.806;2024-02-26T00:05:13;14.63;;;8.70;;
4074;SDS011;2052;53.522;9.806;2024-02-26T00:07:40;12.13;;;8.13;;
4074;SDS011;2052;53.522;9.806;2024-02-26T00:10:08;15.00;;;9.10;;
4074;SDS011;2052;53.522;9.806;2024-02-26T00:12:35;10.93;;;7.33;;
4074;SDS011;2052;53.522;9.806;2024-02-26T00:15:02;14.37;;;8.00;;
4074;SDS011;2052;53.522;9.806;2024-02-26T00:17:29;13.33;;;8.40;;
4074;SDS011;2052;53.522;9.806;2024-02-26T00:19:57;14.03;;;8.80;;
4074;SDS011;2052;53.522;9.806;2024-02-26T00:22:25;15.33;;;9.43;;
4074;SDS011;2052;53.522;9.806;2024-02-26T00:24:52;12.13;;;8.20;;
4074;SDS011;2052;53.522;9.806;2024-02-26T00:27:19;10.83;;;7.30;;
4074;SDS011;2052;53.522;9.806;2024-02-26T00:29:45;13.13;;;8.03;;
4074;SDS011;2052;53.522;9.806;2024-02-26T00:32:12;15.10;;;8.53;;
4074;SDS011;2052;53.522;9.806;2024-02-26T00:34:38;14.90;;;9.23;;
4074;SDS011;2052;53.522;9.806;2024-02-26T00:37:06;14.80;;;8.30;;
4074;SDS011;2052;53.522;9.806;2024-02-26T00:39:33;17.40;;;9.23;;
4074;SDS011;2052;53.522;9.806;2024-02-26T00:41:59;14.30;;;8.80;;
4074;SDS011;2052;53.522;9.806;2024-02-26T00:44:26;16.20;;;8.83;;
4074;SDS011;2052;53.522;9.806;2024-02-26T00:46:53;17.30;;;9.47;;
4074;SDS011;2052;53.522;9.806;2024-02-26T00:49:19;21.63;;;10.53;;
4074;SDS011;2052;53.522;9.806;2024-02-26T00:51:46;15.53;;;10.17;;
4074;SDS011;2052;53.522;9.806;2024-02-26T00:54:14;16.13;;;9.50;;
4074;SDS011;2052;53.522;9.806;2024-02-26T00:56:40;15.57;;;9.90;;
4074;SDS011;2052;53.522;9.806;2024-02-26T00:59:07;19.00;;;10.30;;
4074;SDS011;2052;53.522;9.806;2024-02-26T01:01:34;16.97;;;9.47;;
4074;SDS011;2052;53.522;9.806;2024-02-26T01:04:01;16.17;;;9.60;;
4074;SDS011;2052;53.522;9.806;2024-02-26T01:06:28;17.93;;;9.90;;
4074;SDS011;2052;53.522;9.806;2024-02-26T01:08:54;15.27;;;8.30;;
4074;SDS011;2052;53.522;9.806;2024-02-26T01:11:22;19.70;;;9.70;;
4074;SDS011;2052;53.522;9.806;2024-02-26T01:13:49;16.47;;;9.60;;
4074;SDS011;2052;53.522;9.806;2024-02-26T01:16:18;13.50;;;8.63;;
4074;SDS011;2052;53.522;9.806;2024-02-26T01:18:45;11.80;;;8.07;;
4074;SDS011;2052;53.522;9.806;2024-02-26T01:21:11;19.07;;;9.00;;
4074;SDS011;2052;53.522;9.806;2024-02-26T01:23:38;16.63;;;7.50;;
4074;SDS011;2052;53.522;9.806;2024-02-26T01:26:04;14.57;;;7.80;;
4074;SDS011;2052;53.522;9.806;2024-02-26T01:28:32;16.47;;;8.60;;
4074;SDS011;2052;53.522;9.806;2024-02-26T01:30:59;12.53;;;7.37;;
4074;SDS011;2052;53.522;9.806;2024-02-26T01:33:26;16.03;;;8.40;;
4074;SDS011;2052;53.522;9.806;2024-02-26T01:35:52;17.77;;;9.27;;
4074;SDS011;2052;53.522;9.806;2024-02-26T01:38:19;14.97;;;8.30;;
4074;SDS011;2052;53.522;9.806;2024-02-26T01:40:46;17.30;;;9.00;;
4074;SDS011;2052;53.522;9.806;2024-02-26T01:43:12;16.10;;;8.57;;
4074;SDS011;2052;53.522;9.806;2024-02-26T01:45:42;16.50;;;9.43;;
4074;SDS011;2052;53.522;9.806;2024-02-26T01:48:08;13.23;;;7.83;;
4074;SDS011;2052;53.522;9.806;2024-02-26T01:50:36;17.40;;;8.43;;
4074;SDS011;2052;53.522;9.806;2024-02-26T01:53:04;19.13;;;8.70;;
4074;SDS011;2052;53.522;9.806;2024-02-26T01:55:31;70.97;;;9.10;;
4074;SDS011;2052;53.522;9.806;2024-02-26T01:57:58;15.17;;;5.90;;
4074;SDS011;2052;53.522;9.806;2024-02-26T02:00:25;16.90;;;7.13;;
4074;SDS011;2052;53.522;9.806;2024-02-26T02:02:53;5.90;;;4.73;;
4074;SDS011;2052;53.522;9.806;2024-02-26T02:05:20;60.57;;;7.50;;
4074;SDS011;2052;53.522;9.806;2024-02-26T02:07:49;70.13;;;7.17;;
4074;SDS011;2052;53.522;9.806;2024-02-26T02:10:16;43.80;;;5.90;;
4074;SDS011;2052;53.522;9.806;2024-02-26T02:12:47;40.03;;;6.27;;
4074;SDS011;2052;53.522;9.806;2024-02-26T02:15:14;25.23;;;4.50;;
4074;SDS011;2052;53.522;9.806;2024-02-26T02:17:41;55.40;;;7.50;;
4074;SDS011;2052;53.522;9.806;2024-02-26T02:20:10;7.50;;;4.50;;
4074;SDS011;2052;53.522;9.806;2024-02-26T02:22:43;29.20;;;5.27;;
4074;SDS011;2052;53.522;9.806;2024-02-26T02:25:09;41.63;;;5.40;;
4074;SDS011;2052;53.522;9.806;2024-02-26T02:27:36;15.30;;;4.73;;
4074;SDS011;2052;53.522;9.806;2024-02-26T02:30:03;11.93;;;4.57;;
4074;SDS011;2052;53.522;9.806;2024-02-26T02:32:30;6.40;;;4.70;;
4074;SDS011;2052;53.522;9.806;2024-02-26T02:34:57;57.87;;;9.70;;
4074;SDS011;2052;53.522;9.806;2024-02-26T02:37:24;9.00;;;4.73;;
4074;SDS011;2052;53.522;9.806;2024-02-26T02:39:52;11.83;;;6.30;;
4074;SDS011;2052;53.522;9.806;2024-02-26T02:42:20;10.87;;;6.63;;
4074;SDS011;2052;53.522;9.806;2024-02-26T02:44:46;10.27;;;6.20;;
4074;SDS011;2052;53.522;9.806;2024-02-26T02:47:13;12.73;;;7.87;;
4074;SDS011;2052;53.522;9.806;2024-02-26T02:49:40;12.90;;;7.57;;
4074;SDS011;2052;53.522;9.806;2024-02-26T02:52:06;15.47;;;8.73;;
4074;SDS011;2052;53.522;9.806;2024-02-26T02:54:33;12.87;;;8.03;;
4074;SDS011;2052;53.522;9.806;2024-02-26T02:57:02;16.50;;;6.90;;
4074;SDS011;2052;53.522;9.806;2024-02-26T02:59:28;11.20;;;6.43;;
4074;SDS011;2052;53.522;9.806;2024-02-26T03:01:55;14.37;;;7.13;;
4074;SDS011;2052;53.522;9.806;2024-02-26T03:04:22;13.57;;;7.90;;
4074;SDS011;2052;53.522;9.806;2024-02-26T03:06:49;15.60;;;8.73;;
4074;SDS011;2052;53.522;9.806;2024-02-26T03:09:15;14.47;;;8.97;;
4074;SDS011;2052;53.522;9.806;2024-02-26T03:11:42;13.40;;;7.87;;
4074;SDS011;2052;53.522;9.806;2024-02-26T03:14:10;15.00;;;9.03;;
4074;SDS011;2052;53.522;9.806;2024-02-26T03:16:37;15.73;;;7.57;;
4074;SDS011;2052;53.522;9.806;2024-02-26T03:19:03;11.20;;;8.03;;
4074;SDS011;2052;53.522;9.806;2024-02-26T03:21:30;16.10;;;7.90;;
4074;SDS011;2052;53.522;9.806;2024-02-26T03:23:57;10.93;;;6.93;;
4074;SDS011;2052;53.522;9.806;2024-02-26T03:26:23;22.13;;;8.10;;
4074;SDS011;2052;53.522;9.806;2024-02-26T03:28:50;14.87;;;8.10;;
4074;SDS011;2052;53.522;9.806;2024-02-26T03:31:18;10.83;;;6.77;;
4074;SDS011;2052;53.522;9.806;2024-02-26T03:33:44;14.77;;;7.47;;
4074;SDS011;2052;53.522;9.806;2024-02-26T03:36:12;28.17;;;9.53;;
4074;SDS011;2052;53.522;9.806;2024-02-26T03:38:39;12.20;;;6.70;;
4074;SDS011;2052;53.522;9.806;2024-02-26T03:41:06;14.47;;;7.77;;
4074;SDS011;2052;53.522;9.806;2024-02-26T03:43:34;13.93;;;8.20;;
4074;SDS011;2052;53.522;9.806;2024-02-26T03:46:00;12.30;;;7.77;;
4074;SDS011;2052;53.522;9.806;2024-02-26T03:48:28;12.63;;;8.03;;
4074;SDS011;2052;53.522;9.806;2024-02-26T03:50:55;12.60;;;6.97;;
4074;SDS011;2052;53.522;9.806;2024-02-26T03:53:22;12.10;;;7.00;;
4074;SDS011;2052;53.522;9.806;2024-02-26T03:55:49;17.33;;;7.53;;
4074;SDS011;2052;53.522;9.806;2024-02-26T03:58:17;13.40;;;8.20;;
4074;SDS011;2052;53.522;9.806;2024-02-26T04:00:43;13.50;;;7.50;;
4074;SDS011;2052;53.522;9.806;2024-02-26T04:03:12;19.60;;;9.27;;
4074;SDS011;2052;53.522;9.806;2024-02-26T04:05:40;15.30;;;8.87;;
4074;SDS011;2052;53.522;9.806;2024-02-26T04:08:06;18.77;;;10.20;;
4074;SDS011;2052;53.522;9.806;2024-02-26T04:10:33;16.00;;;8.50;;
4074;SDS011;2052;53.522;9.806;2024-02-26T04:13:03;17.30;;;9.90;;
4074;SDS011;2052;53.522;9.806;2024-02-26T04:15:30;15.37;;;9.23;;
4074;SDS011;2052;53.522;9.806;2024-02-26T04:17:57;18.77;;;9.73;;
4074;SDS011;2052;53.522;9.806;2024-02-26T04:20:24;22.87;;;9.87;;
4074;SDS011;2052;53.522;9.806;2024-02-26T04:22:52;15.27;;;9.13;;
4074;SDS011;2052;53.522;9.806;2024-02-26T04:25:19;20.60;;;9.73;;
4074;SDS011;2052;53.522;9.806;2024-02-26T04:27:45;14.47;;;8.40;;
4074;SDS011;2052;53.522;9.806;2024-02-26T04:30:12;24.77;;;9.13;;
4074;SDS011;2052;53.522;9.806;2024-02-26T04:32:39;10.13;;;7.20;;
4074;SDS011;2052;53.522;9.806;2024-02-26T04:35:05;16.87;;;8.60;;
4074;SDS011;2052;53.522;9.806;2024-02-26T04:37:32;15.93;;;8.00;;
4074;SDS011;2052;53.522;9.806;2024-02-26T04:40:00;16.70;;;8.80;;
4074;SDS011;2052;53.522;9.806;2024-02-26T04:42:29;18.20;;;9.00;;
4074;SDS011;2052;53.522;9.806;2024-02-26T04:44:55;15.27;;;8.40;;
4074;SDS011;2052;53.522;9.806;2024-02-26T04:47:23;11.87;;;7.63;;
4074;SDS011;2052;53.522;9.806;2024-02-26T04:49:50;14.90;;;7.30;;
4074;SDS011;2052;53.522;9.806;2024-02-26T04:52:16;12.53;;;6.17;;
4074;SDS011;2052;53.522;9.806;2024-02-26T04:54:45;12.70;;;7.00;;
4074;SDS011;2052;53.522;9.806;2024-02-26T04:57:12;14.83;;;7.43;;
4074;SDS011;2052;53.522;9.806;2024-02-26T04:59:39;16.30;;;7.30;;
4074;SDS011;2052;53.522;9.806;2024-02-26T05:02:07;13.83;;;6.97;;
4074;SDS011;2052;53.522;9.806;2024-02-26T05:04:34;11.57;;;6.60;;
4074;SDS011;2052;53.522;9.806;2024-02-26T05:07:01;12.40;;;6.73;;
4074;SDS011;2052;53.522;9.806;2024-02-26T05:09:28;14.20;;;6.97;;
4074;SDS011;2052;53.522;9.806;2024-02-26T05:11:55;12.70;;;7.43;;
4074;SDS011;2052;53.522;9.806;2024-02-26T05:14:24;12.50;;;7.07;;
4074;SDS011;2052;53.522;9.806;2024-02-26T05:16:50;12.90;;;6.20;;
4074;SDS011;2052;53.522;9.806;2024-02-26T05:19:17;17.43;;;7.27;;
4074;SDS011;2052;53.522;9.806;2024-02-26T05:21:44;13.13;;;7.17;;
4074;SDS011;2052;53.522;9.806;2024-02-26T05:24:14;11.30;;;6.70;;
4074;SDS011;2052;53.522;9.806;2024-02-26T05:26:42;16.20;;;6.43;;
4074;SDS011;2052;53.522;9.806;2024-02-26T05:29:09;10.53;;;6.90;;
4074;SDS011;2052;53.522;9.806;2024-02-26T05:31:39;15.87;;;7.20;;
4074;SDS011;2052;53.522;9.806;2024-02-26T05:34:05;14.27;;;6.80;;
4074;SDS011;2052;53.522;9.806;2024-02-26T05:36:32;11.90;;;6.17;;
4074;SDS011;2052;53.522;9.806;2024-02-26T05:38:59;14.83;;;6.90;;
4074;SDS011;2052;53.522;9.806;2024-02-26T05:41:26;15.90;;;7.60;;
4074;SDS011;2052;53.522;9.806;2024-02-26T05:43:53;15.00;;;7.00;;
4074;SDS011;2052;53.522;9.806;2024-02-26T05:46:20;13.83;;;6.47;;
4074;SDS011;2052;53.522;9.806;2024-02-26T05:48:50;10.70;;;6.60;;
4074;SDS011;2052;53.522;9.806;2024-02-26T05:51:17;12.50;;;6.80;;
4074;SDS011;2052;53.522;9.806;2024-02-26T05:53:44;16.57;;;8.33;;
4074;SDS011;2052;53.522;9.806;2024-02-26T05:56:11;15.07;;;7.70;;
4074;SDS011;2052;53.522;9.806;2024-02-26T05:58:41;18.97;;;8.90;;
4074;SDS011;2052;53.522;9.806;2024-02-26T06:01:07;13.27;;;7.30;;
4074;SDS011;2052;53.522;9.806;2024-02-26T06:03:34;16.60;;;8.50;;
4074;SDS011;2052;53.522;9.806;2024-02-26T06:06:02;18.03;;;8.00;;
4074;SDS011;2052;53.522;9.806;2024-02-26T06:08:28;12.30;;;6.83;;
4074;SDS011;2052;53.522;9.806;2024-02-26T06:10:56;13.73;;;7.90;;
4074;SDS011;2052;53.522;9.806;2024-02-26T06:13:22;19.70;;;10.20;;
4074;SDS011;2052;53.522;9.806;2024-02-26T06:15:50;18.17;;;9.40;;
4074;SDS011;2052;53.522;9.806;2024-02-26T06:18:17;29.93;;;13.40;;
4074;SDS011;2052;53.522;9.806;2024-02-26T06:20:44;30.10;;;13.50;;
4074;SDS011;2052;53.522;9.806;2024-02-26T06:23:13;27.37;;;13.67;;
4074;SDS011;2052;53.522;9.806;2024-02-26T06:25:39;36.90;;;18.03;;
4074;SDS011;2052;53.522;9.806;2024-02-26T06:28:07;42.60;;;18.07;;
4074;SDS011;2052;53.522;9.806;2024-02-26T06:30:34;43.40;;;17.77;;
4074;SDS011;2052;53.522;9.806;2024-02-26T06:33:01;35.27;;;16.80;;
4074;SDS011;2052;53.522;9.806;2024-02-26T06:35:28;38.00;;;19.53;;
4074;SDS011;2052;53.522;9.806;2024-02-26T06:37:54;40.30;;;20.07;;
4074;SDS011;2052;53.522;9.806;2024-02-26T06:40:23;40.37;;;18.17;;
4074;SDS011;2052;53.522;9.806;2024-02-26T06:42:53;43.23;;;17.57;;
4074;SDS011;2052;53.522;9.806;2024-02-26T06:45:20;37.77;;;17.53;;
4074;SDS011;2052;53.522;9.806;2024-02-26T06:47:47;40.67;;;19.23;;
4074;SDS011;2052;53.522;9.806;2024-02-26T06:50:13;47.97;;;20.70;;
4074;SDS011;2052;53.522;9.806;2024-02-26T06:52:40;49.27;;;20.30;;
4074;SDS011;2052;53.522;9.806;2024-02-26T06:55:08;48.63;;;22.30;;
4074;SDS011;2052;53.522;9.806;2024-02-26T06:57:36;47.57;;;20.43;;
4074;SDS011;2052;53.522;9.806;2024-02-26T07:00:03;43.57;;;19.77;;
4074;SDS011;2052;53.522;9.806;2024-02-26T07:02:30;51.90;;;20.57;;
4074;SDS011;2052;53.522;9.806;2024-02-26T07:04:57;54.57;;;20.70;;
4074;SDS011;2052;53.522;9.806;2024-02-26T07:07:23;45.20;;;20.10;;
4074;SDS011;2052;53.522;9.806;2024-02-26T07:09:50;46.80;;;21.00;;
4074;SDS011;2052;53.522;9.806;2024-02-26T07:12:17;46.50;;;19.77;;
4074;SDS011;2052;53.522;9.806;2024-02-26T07:14:46;45.63;;;20.30;;
4074;SDS011;2052;53.522;9.806;2024-02-26T07:17:14;50.20;;;22.87;;
4074;SDS011;2052;53.522;9.806;2024-02-26T07:19:41;50.27;;;21.03;;
4074;SDS011;2052;53.522;9.806;2024-02-26T07:22:07;48.07;;;20.53;;
4074;SDS011;2052;53.522;9.806;2024-02-26T07:24:34;45.03;;;19.30;;
4074;SDS011;2052;53.522;9.806;2024-02-26T07:27:01;40.77;;;19.07;;
4074;SDS011;2052;53.522;9.806;2024-02-26T07:29:28;44.60;;;19.47;;
4074;SDS011;2052;53.522;9.806;2024-02-26T07:31:56;44.40;;;20.70;;
4074;SDS011;2052;53.522;9.806;2024-02-26T07:34:24;45.97;;;20.47;;
4074;SDS011;2052;53.522;9.806;2024-02-26T07:36:54;49.73;;;20.83;;
4074;SDS011;2052;53.522;9.806;2024-02-26T07:39:20;43.60;;;20.47;;
4074;SDS011;2052;53.522;9.806;2024-02-26T07:41:50;44.40;;;20.20;;
4074;SDS011;2052;53.522;9.806;2024-02-26T07:44:18;52.30;;;22.50;;
4074;SDS011;2052;53.522;9.806;2024-02-26T07:46:44;46.23;;;20.00;;
4074;SDS011;2052;53.522;9.806;2024-02-26T07:49:15;47.27;;;20.97;;
4074;SDS011;2052;53.522;9.806;2024-02-26T07:51:42;50.97;;;22.27;;
4074;SDS011;2052;53.522;9.806;2024-02-26T07:54:08;53.23;;;22.23;;
4074;SDS011;2052;53.522;9.806;2024-02-26T07:56:35;48.57;;;21.77;;
4074;SDS011;2052;53.522;9.806;2024-02-26T07:59:03;56.37;;;21.30;;
4074;SDS011;2052;53.522;9.806;2024-02-26T08:01:29;45.50;;;20.87;;
4074;SDS011;2052;53.522;9.806;2024-02-26T08:03:56;55.20;;;22.43;;
4074;SDS011;2052;53.522;9.806;2024-02-26T08:06:24;50.97;;;23.53;;
4074;SDS011;2052;53.522;9.806;2024-02-26T08:08:51;55.37;;;23.77;;
4074;SDS011;2052;53.522;9.806;2024-02-26T08:11:18;44.13;;;23.60;;
4074;SDS011;2052;53.522;9.806;2024-02-26T08:13:44;50.70;;;22.03;;
4074;SDS011;2052;53.522;9.806;2024-02-26T08:16:11;50.27;;;24.70;;
4074;SDS011;2052;53.522;9.806;2024-02-26T08:18:38;55.30;;;22.83;;
4074;SDS011;2052;53.522;9.806;2024-02-26T08:21:04;54.43;;;23.20;;
4074;SDS011;2052;53.522;9.806;2024-02-26T08:23:32;55.23;;;23.87;;
4074;SDS011;2052;53.522;9.806;2024-02-26T08:25:59;67.70;;;25.57;;
4074;SDS011;2052;53.522;9.806;2024-02-26T08:28:25;47.87;;;22.93;;
4074;SDS011;2052;53.522;9.806;2024-02-26T08:30:52;54.43;;;22.53;;
4074;SDS011;2052;53.522;9.806;2024-02-26T08:33:19;56.50;;;23.63;;
4074;SDS011;2052;53.522;9.806;2024-02-26T08:35:46;56.73;;;24.10;;
4074;SDS011;2052;53.522;9.806;2024-02-26T08:38:12;52.93;;;22.70;;
4074;SDS011;2052;53.522;9.806;2024-02-26T08:40:40;50.40;;;21.87;;
4074;SDS011;2052;53.522;9.806;2024-02-26T08:43:07;50.10;;;24.00;;
4074;SDS011;2052;53.522;9.806;2024-02-26T08:45:35;53.63;;;22.60;;
4074;SDS011;2052;53.522;9.806;2024-02-26T08:48:02;53.03;;;23.00;;
4074;SDS011;2052;53.522;9.806;2024-02-26T08:50:29;45.67;;;20.40;;
4074;SDS011;2052;53.522;9.806;2024-02-26T08:52:59;49.90;;;24.33;;
4074;SDS011;2052;53.522;9.806;2024-02-26T08:55:29;47.30;;;20.60;;
4074;SDS011;2052;53.522;9.806;2024-02-26T08:57:57;48.33;;;20.93;;
4074;SDS011;2052;53.522;9.806;2024-02-26T09:00:24;50.30;;;21.23;;
4074;SDS011;2052;53.522;9.806;2024-02-26T09:02:50;55.83;;;21.53;;
4074;SDS011;2052;53.522;9.806;2024-02-26T09:05:17;48.67;;;21.70;;
4074;SDS011;2052;53.522;9.806;2024-02-26T09:07:43;46.80;;;22.27;;
4074;SDS011;2052;53.522;9.806;2024-02-26T09:10:11;43.13;;;20.23;;
4074;SDS011;2052;53.522;9.806;2024-02-26T09:12:38;43.33;;;19.97;;
4074;SDS011;2052;53.522;9.806;2024-02-26T09:15:07;45.10;;;19.10;;
4074;SDS011;2052;53.522;9.806;2024-02-26T09:17:34;48.87;;;20.20;;
4074;SDS011;2052;53.522;9.806;2024-02-26T09:20:02;39.87;;;18.40;;
4074;SDS011;2052;53.522;9.806;2024-02-26T09:22:30;45.07;;;18.90;;
4074;SDS011;2052;53.522;9.806;2024-02-26T09:24:57;41.57;;;17.53;;
4074;SDS011;2052;53.522;9.806;2024-02-26T09:27:25;33.27;;;15.53;;
4074;SDS011;2052;53.522;9.806;2024-02-26T09:29:51;38.47;;;17.47;;
4074;SDS011;2052;53.522;9.806;2024-02-26T09:32:20;38.23;;;16.53;;
4074;SDS011;2052;53.522;9.806;2024-02-26T09:34:46;31.63;;;16.13;;
4074;SDS011;2052;53.522;9.806;2024-02-26T09:37:13;32.53;;;15.50;;
4074;SDS011;2052;53.522;9.806;2024-02-26T09:39:39;34.70;;;17.10;;
4074;SDS011;2052;53.522;9.806;2024-02-26T09:42:06;31.80;;;15.57;;
4074;SDS011;2052;53.522;9.806;2024-02-26T09:44:35;29.97;;;13.87;;
4074;SDS011;2052;53.522;9.806;2024-02-26T09:47:03;27.37;;;12.93;;
4074;SDS011;2052;53.522;9.806;2024-02-26T09:49:33;25.30;;;13.80;;
4074;SDS011;2052;53.522;9.806;2024-02-26T09:52:01;30.80;;;12.73;;
4074;SDS011;2052;53.522;9.806;2024-02-26T09:54:29;27.40;;;14.07;;
4074;SDS011;2052;53.522;9.806;2024-02-26T09:56:56;26.47;;;12.90;;
4074;SDS011;2052;53.522;9.806;2024-02-26T09:59:26;26.10;;;12.60;;
4074;SDS011;2052;53.522;9.806;2024-02-26T10:01:53;26.87;;;12.47;;
4074;SDS011;2052;53.522;9.806;2024-02-26T10:04:20;23.47;;;12.30;;
4074;SDS011;2052;53.522;9.806;2024-02-26T10:06:51;25.17;;;12.33;;
4074;SDS011;2052;53.522;9.806;2024-02-26T10:09:19;25.57;;;12.90;;
4074;SDS011;2052;53.522;9.806;2024-02-26T10:11:46;26.43;;;12.70;;
4074;SDS011;2052;53.522;9.806;2024-02-26T10:14:14;24.23;;;11.90;;
4074;SDS011;2052;53.522;9.806;2024-02-26T10:16:42;25.57;;;11.90;;
4074;SDS011;2052;53.522;9.806;2024-02-26T10:19:09;29.17;;;14.10;;
4074;SDS011;2052;53.522;9.806;2024-02-26T10:21:54;22.70;;;12.67;;
4074;SDS011;2052;53.522;9.806;2024-02-26T10:24:22;29.27;;;13.00;;
4074;SDS011;2052;53.522;9.806;2024-02-26T10:26:49;25.20;;;11.60;;
4074;SDS011;2052;53.522;9.806;2024-02-26T10:29:16;29.40;;;14.63;;
4074;SDS011;2052;53.522;9.806;2024-02-26T10:31:42;24.67;;;13.03;;
4074;SDS011;2052;53.522;9.806;2024-02-26T10:34:10;26.70;;;14.10;;
4074;SDS011;2052;53.522;9.806;2024-02-26T10:36:37;31.13;;;13.90;;
4074;SDS011;2052;53.522;9.806;2024-02-26T10:39:07;26.57;;;12.40;;
4074;SDS011;2052;53.522;9.806;2024-02-26T10:41:34;26.13;;;12.93;;
4074;SDS011;2052;53.522;9.806;2024-02-26T10:44:00;26.23;;;13.50;;
4074;SDS011;2052;53.522;9.806;2024-02-26T10:46:27;26.97;;;12.77;;
4074;SDS011;2052;53.522;9.806;2024-02-26T10:48:53;24.20;;;11.50;;
4074;SDS011;2052;53.522;9.806;2024-02-26T10:51:23;28.33;;;13.67;;
4074;SDS011;2052;53.522;9.806;2024-02-26T10:53:54;25.17;;;11.50;;
4074;SDS011;2052;53.522;9.806;2024-02-26T10:56:25;24.30;;;12.23;;
4074;SDS011;2052;53.522;9.806;2024-02-26T10:58:53;22.60;;;11.40;;
4074;SDS011;2052;53.522;9.806;2024-02-26T11:01:20;24.60;;;11.57;;
4074;SDS011;2052;53.522;9.806;2024-02-26T11:03:47;22.27;;;11.17;;
4074;SDS011;2052;53.522;9.806;2024-02-26T11:06:14;22.70;;;11.10;;
4074;SDS011;2052;53.522;9.806;2024-02-26T11:08:41;21.37;;;10.83;;
4074;SDS011;2052;53.522;9.806;2024-02-26T11:11:08;23.50;;;11.30;;
4074;SDS011;2052;53.522;9.806;2024-02-26T11:13:39;22.63;;;10.80;;
4074;SDS011;2052;53.522;9.806;2024-02-26T11:16:09;20.33;;;9.13;;
4074;SDS011;2052;53.522;9.806;2024-02-26T11:18:36;17.33;;;9.90;;
4074;SDS011;2052;53.522;9.806;2024-02-26T11:21:03;23.57;;;11.60;;
4074;SDS011;2052;53.522;9.806;2024-02-26T11:23:30;23.37;;;11.03;;
4074;SDS011;2052;53.522;9.806;2024-02-26T11:26:00;24.33;;;10.67;;
4074;SDS011;2052;53.522;9.806;2024-02-26T11:28:27;22.83;;;10.83;;
4074;SDS011;2052;53.522;9.806;2024-02-26T11:30:56;20.10;;;9.30;;
4074;SDS011;2052;53.522;9.806;2024-02-26T11:33:24;18.53;;;8.73;;
4074;SDS011;2052;53.522;9.806;2024-02-26T11:35:51;17.77;;;8.93;;
4074;SDS011;2052;53.522;9.806;2024-02-26T11:38:17;21.80;;;10.27;;
4074;SDS011;2052;53.522;9.806;2024-02-26T11:40:46;19.47;;;10.40;;
4074;SDS011;2052;53.522;9.806;2024-02-26T11:43:14;20.30;;;10.67;;
4074;SDS011;2052;53.522;9.806;2024-02-26T11:45:50;19.63;;;9.03;;
4074;SDS011;2052;53.522;9.806;2024-02-26T11:48:30;16.47;;;9.40;;
4074;SDS011;2052;53.522;9.806;2024-02-26T11:50:57;17.30;;;9.80;;
4074;SDS011;2052;53.522;9.806;2024-02-26T11:53:24;21.90;;;10.70;;
4074;SDS011;2052;53.522;9.806;2024-02-26T11:58:47;21.73;;;9.90;;
4074;SDS011;2052;53.522;9.806;2024-02-26T12:04:11;18.30;;;9.20;;
4074;SDS011;2052;53.522;9.806;2024-02-26T12:06:43;18.37;;;9.00;;
4074;SDS011;2052;53.522;9.806;2024-02-26T12:09:11;19.60;;;9.40;;
4074;SDS011;2052;53.522;9.806;2024-02-26T12:11:39;20.20;;;9.80;;
4074;SDS011;2052;53.522;9.806;2024-02-26T12:14:07;23.73;;;10.83;;
4074;SDS011;2052;53.522;9.806;2024-02-26T12:16:35;22.80;;;9.93;;
4074;SDS011;2052;53.522;9.806;2024-02-26T12:19:03;19.07;;;9.70;;
4074;SDS011;2052;53.522;9.806;2024-02-26T12:21:34;20.00;;;9.33;;
4074;SDS011;2052;53.522;9.806;2024-02-26T12:24:12;16.50;;;8.80;;
4074;SDS011;2052;53.522;9.806;2024-02-26T12:26:39;18.80;;;9.97;;
4074;SDS011;2052;53.522;9.806;2024-02-26T12:29:06;19.70;;;10.40;;
4074;SDS011;2052;53.522;9.806;2024-02-26T12:31:33;16.57;;;9.53;;
4074;SDS011;2052;53.522;9.806;2024-02-26T12:34:02;20.00;;;9.77;;
4074;SDS011;2052;53.522;9.806;2024-02-26T12:36:28;18.70;;;10.40;;
4074;SDS011;2052;53.522;9.806;2024-02-26T12:38:56;19.13;;;11.20;;
4074;SDS011;2052;53.522;9.806;2024-02-26T12:41:22;19.30;;;9.73;;
4074;SDS011;2052;53.522;9.806;2024-02-26T12:43:49;20.87;;;11.17;;
4074;SDS011;2052;53.522;9.806;2024-02-26T12:46:16;21.27;;;11.07;;
4074;SDS011;2052;53.522;9.806;2024-02-26T12:48:43;20.83;;;10.40;;
4074;SDS011;2052;53.522;9.806;2024-02-26T12:51:11;20.20;;;11.23;;
4074;SDS011;2052;53.522;9.806;2024-02-26T12:53:38;21.27;;;11.20;;
4074;SDS011;2052;53.522;9.806;2024-02-26T12:56:07;20.40;;;12.13;;
4074;SDS011;2052;53.522;9.806;2024-02-26T12:58:34;22.80;;;11.37;;
4074;SDS011;2052;53.522;9.806;2024-02-26T13:01:03;27.10;;;14.43;;
4074;SDS011;2052;53.522;9.806;2024-02-26T13:03:30;23.63;;;12.37;;
4074;SDS011;2052;53.522;9.806;2024-02-26T13:05:57;22.97;;;11.97;;
4074;SDS011;2052;53.522;9.806;2024-02-26T13:08:24;25.77;;;13.00;;
4074;SDS011;2052;53.522;9.806;2024-02-26T13:10:50;26.10;;;12.60;;
4074;SDS011;2052;53.522;9.806;2024-02-26T13:13:19;25.00;;;12.53;;
4074;SDS011;2052;53.522;9.806;2024-02-26T13:15:46;25.97;;;13.07;;
4074;SDS011;2052;53.522;9.806;2024-02-26T13:18:13;22.90;;;12.50;;
4074;SDS011;2052;53.522;9.806;2024-02-26T13:20:41;24.60;;;12.50;;
4074;SDS011;2052;53.522;9.806;2024-02-26T13:23:08;23.37;;;12.67;;
4074;SDS011;2052;53.522;9.806;2024-02-26T13:25:37;21.50;;;11.20;;
4074;SDS011;2052;53.522;9.806;2024-02-26T13:28:06;29.00;;;11.50;;
4074;SDS011;2052;53.522;9.806;2024-02-26T13:30:35;17.80;;;9.90;;
4074;SDS011;2052;53.522;9.806;2024-02-26T13:33:09;22.10;;;10.60;;
4074;SDS011;2052;53.522;9.806;2024-02-26T13:35:36;23.50;;;11.83;;
4074;SDS011;2052;53.522;9.806;2024-02-26T13:38:04;22.03;;;9.67;;
4074;SDS011;2052;53.522;9.806;2024-02-26T13:40:31;17.80;;;10.03;;
4074;SDS011;2052;53.522;9.806;2024-02-26T13:42:59;21.47;;;10.70;;
4074;SDS011;2052;53.522;9.806;2024-02-26T13:45:25;21.40;;;10.53;;
4074;SDS011;2052;53.522;9.806;2024-02-26T13:47:54;23.90;;;11.23;;
4074;SDS011;2052;53.522;9.806;2024-02-26T13:50:20;26.00;;;11.60;;
4074;SDS011;2052;53.522;9.806;2024-02-26T13:52:48;16.83;;;9.60;;
4074;SDS011;2052;53.522;9.806;2024-02-26T13:55:18;19.70;;;9.90;;
4074;SDS011;2052;53.522;9.806;2024-02-26T13:57:45;23.00;;;10.27;;
4074;SDS011;2052;53.522;9.806;2024-02-26T14:00:12;21.43;;;11.40;;
4074;SDS011;2052;53.522;9.806;2024-02-26T14:02:40;23.13;;;10.50;;
4074;SDS011;2052;53.522;9.806;2024-02-26T14:05:08;22.60;;;10.00;;
4074;SDS011;2052;53.522;9.806;2024-02-26T14:07:35;24.73;;;10.63;;
4074;SDS011;2052;53.522;9.806;2024-02-26T14:10:01;20.00;;;10.63;;
4074;SDS011;2052;53.522;9.806;2024-02-26T14:12:28;19.80;;;10.17;;
4074;SDS011;2052;53.522;9.806;2024-02-26T14:14:54;20.57;;;10.50;;
4074;SDS011;2052;53.522;9.806;2024-02-26T14:17:21;20.43;;;10.00;;
4074;SDS011;2052;53.522;9.806;2024-02-26T14:19:47;21.57;;;10.17;;
4074;SDS011;2052;53.522;9.806;2024-02-26T14:22:16;20.67;;;10.20;;
4074;SDS011;2052;53.522;9.806;2024-02-26T14:24:42;19.77;;;10.30;;
4074;SDS011;2052;53.522;9.806;2024-02-26T14:27:10;24.57;;;11.50;;
4074;SDS011;2052;53.522;9.806;2024-02-26T14:29:40;21.37;;;9.93;;
4074;SDS011;2052;53.522;9.806;2024-02-26T14:32:07;23.20;;;11.37;;
4074;SDS011;2052;53.522;9.806;2024-02-26T14:34:33;24.40;;;11.30;;
4074;SDS011;2052;53.522;9.806;2024-02-26T14:37:00;22.17;;;11.10;;
4074;SDS011;2052;53.522;9.806;2024-02-26T14:39:28;27.40;;;12.53;;
4074;SDS011;2052;53.522;9.806;2024-02-26T14:41:56;23.20;;;11.27;;
4074;SDS011;2052;53.522;9.806;2024-02-26T14:44:24;18.23;;;11.17;;
4074;SDS011;2052;53.522;9.806;2024-02-26T14:46:53;26.07;;;12.40;;
4074;SDS011;2052;53.522;9.806;2024-02-26T14:49:19;21.53;;;10.43;;
4074;SDS011;2052;53.522;9.806;2024-02-26T14:51:46;24.63;;;12.37;;
4074;SDS011;2052;53.522;9.806;2024-02-26T14:54:13;21.77;;;11.43;;
4074;SDS011;2052;53.522;9.806;2024-02-26T14:56:41;23.03;;;10.93;;
4074;SDS011;2052;53.522;9.806;2024-02-26T14:59:08;28.13;;;11.67;;
4074;SDS011;2052;53.522;9.806;2024-02-26T15:01:35;22.07;;;11.10;;